Karina — WDE7823 — position and weather

sailwx.info

Track history (hours):
 
Tides and Currents Weather Stations Pressure Air Temp Water Temp Dewpoint Dewpoint Depression Visibility Wind Speed Wind Dir Waves Ship Positions

Karina

Owner: Karina, LLC, Cape May Court House, NJ. More information available from US FCC via Universal Licensing System and Coast Guard Vessel Documentation Center.

Last reported at 2015-Jul-02 22:15 UTC. Time now 2015-Jul-03 22:01 UTC.
Position N 40°50' W 072°10'.

Length 21 m.

Type: Pleasure craft. MMSI: 367398120.

Date/timePositionNaut miles runAvg speedWind from/ knotsBaromVisibWave heightAir tempDewpointWater temp
2015-Jul-02 22:15N 40°50' W 072°10'22 8.3
2015-Jul-02 19:33N 41°03' W 071°47'8 8.0
2015-Jul-02 18:33N 41°10' W 071°41'12 0.8
2015-Jul-02 03:04N 40°57' W 071°42'2 0.1
2015-Jul-01 02:21N 40°56' W 071°42'0 0.4
2015-Jul-01 01:27N 40°56' W 071°41'5 1.4
2015-Jun-30 22:07N 40°59' W 071°36'4 1.9
2015-Jun-30 20:05N 40°55' W 071°38'3 0.7
2015-Jun-30 16:20N 40°55' W 071°42'1 1.5
2015-Jun-30 15:20N 40°56' W 071°41'1 1.2
2015-Jun-30 14:23N 40°56' W 071°42'0 0.2
2015-Jun-30 12:10N 40°56' W 071°42'2 3.1
2015-Jun-30 11:33N 40°56' W 071°39'0 0.2
2015-Jun-30 10:33N 40°56' W 071°39'2 1.2
2015-Jun-30 08:33N 40°56' W 071°42'0 0.2
2015-Jun-30 07:20N 40°56' W 071°42'1 1.0
2015-Jun-30 06:13N 40°56' W 071°41'1 1.9
2015-Jun-30 05:32N 40°56' W 071°39'  
2015-Jun-28 00:33N 41°23' W 071°31'28 3.8
2015-Jun-27 17:18N 40°57' W 071°42'1 0.8
2015-Jun-27 16:33N 40°56' W 071°41'0 0.0
2015-Jun-27 08:22N 40°56' W 071°42'0 0.1
2015-Jun-27 05:33N 40°56' W 071°41'0 0.2
2015-Jun-27 03:33N 40°56' W 071°41'0 0.1
2015-Jun-27 01:05N 40°56' W 071°41'1 0.2
2015-Jun-26 21:33N 40°56' W 071°40'1 0.6
2015-Jun-26 20:32N 40°56' W 071°40'1 0.6
2015-Jun-26 19:33N 40°56' W 071°40'0 0.2
2015-Jun-26 18:33N 40°56' W 071°40'1 1.0
2015-Jun-26 17:33N 40°56' W 071°42'0 0.5
2015-Jun-26 16:32N 40°56' W 071°42'1 0.1
2015-Jun-26 07:15N 40°56' W 071°41'0 0.4
2015-Jun-26 06:29N 40°56' W 071°41'0 0.3
2015-Jun-26 05:05N 40°56' W 071°41'2 3.7
2015-Jun-26 04:33N 40°57' W 071°39'2 1.3
2015-Jun-26 03:05N 40°56' W 071°41'0 0.5
2015-Jun-26 02:33N 40°56' W 071°41'1 0.5
2015-Jun-26 01:33N 40°56' W 071°41'1 0.9
2015-Jun-26 00:33N 40°55' W 071°41'1 1.3
2015-Jun-25 23:33N 40°57' W 071°40'1 0.7
2015-Jun-25 22:33N 40°56' W 071°41'0 0.4
2015-Jun-25 21:33N 40°56' W 071°41'0 0.2
2015-Jun-25 20:33N 40°56' W 071°41'0 0.1
2015-Jun-25 17:15N 40°56' W 071°41'1 1.7
2015-Jun-25 16:33N 40°57' W 071°40'0 0.3
2015-Jun-25 15:29N 40°57' W 071°39'0 0.3
2015-Jun-25 14:32N 40°57' W 071°39'2 1.7
2015-Jun-25 13:32N 40°56' W 071°41'2 0.7
2015-Jun-25 11:17N 40°57' W 071°39'0 0.2
2015-Jun-25 10:15N 40°57' W 071°39'1 0.1
2015-Jun-25 05:23N 40°57' W 071°40'2 2.5
2015-Jun-25 04:26N 40°57' W 071°37'1 0.7
2015-Jun-25 03:17N 40°58' W 071°37'11 1.9
2015-Jun-24 21:18N 41°06' W 071°26'  
Track history (hours):
 
Tides and Currents Weather Stations Pressure Air Temp Water Temp Dewpoint Dewpoint Depression Visibility Wind Speed Wind Dir Waves Ship Positions

Karina

Owner: Karina, LLC, Cape May Court House, NJ. More information available from US FCC via Universal Licensing System and Coast Guard Vessel Documentation Center.

Last reported at 2015-Jul-02 22:15 UTC. Time now 2015-Jul-03 22:01 UTC.
Position N 40°50' W 072°10'.

Length 21 m.

Type: Pleasure craft. MMSI: 367398120.

Date/timePositionNaut miles runAvg speedWind from/ knotsBaromVisibWave heightAir tempDewpointWater temp
2015-Jul-02 22:15N 40°50' W 072°10'22 8.3
2015-Jul-02 19:33N 41°03' W 071°47'8 8.0
2015-Jul-02 18:33N 41°10' W 071°41'12 0.8
2015-Jul-02 03:04N 40°57' W 071°42'2 0.1
2015-Jul-01 02:21N 40°56' W 071°42'0 0.4
2015-Jul-01 01:27N 40°56' W 071°41'5 1.4
2015-Jun-30 22:07N 40°59' W 071°36'4 1.9
2015-Jun-30 20:05N 40°55' W 071°38'3 0.7
2015-Jun-30 16:20N 40°55' W 071°42'1 1.5
2015-Jun-30 15:20N 40°56' W 071°41'1 1.2
2015-Jun-30 14:23N 40°56' W 071°42'0 0.2
2015-Jun-30 12:10N 40°56' W 071°42'2 3.1
2015-Jun-30 11:33N 40°56' W 071°39'0 0.2
2015-Jun-30 10:33N 40°56' W 071°39'2 1.2
2015-Jun-30 08:33N 40°56' W 071°42'0 0.2
2015-Jun-30 07:20N 40°56' W 071°42'1 1.0
2015-Jun-30 06:13N 40°56' W 071°41'1 1.9
2015-Jun-30 05:32N 40°56' W 071°39'  
2015-Jun-28 00:33N 41°23' W 071°31'28 3.8
2015-Jun-27 17:18N 40°57' W 071°42'1 0.8
2015-Jun-27 16:33N 40°56' W 071°41'0 0.0
2015-Jun-27 08:22N 40°56' W 071°42'0 0.1
2015-Jun-27 05:33N 40°56' W 071°41'0 0.2
2015-Jun-27 03:33N 40°56' W 071°41'0 0.1
2015-Jun-27 01:05N 40°56' W 071°41'1 0.2
2015-Jun-26 21:33N 40°56' W 071°40'1 0.6
2015-Jun-26 20:32N 40°56' W 071°40'1 0.6
2015-Jun-26 19:33N 40°56' W 071°40'0 0.2
2015-Jun-26 18:33N 40°56' W 071°40'1 1.0
2015-Jun-26 17:33N 40°56' W 071°42'0 0.5
2015-Jun-26 16:32N 40°56' W 071°42'1 0.1
2015-Jun-26 07:15N 40°56' W 071°41'0 0.4
2015-Jun-26 06:29N 40°56' W 071°41'0 0.3
2015-Jun-26 05:05N 40°56' W 071°41'2 3.7
2015-Jun-26 04:33N 40°57' W 071°39'2 1.3
2015-Jun-26 03:05N 40°56' W 071°41'0 0.5
2015-Jun-26 02:33N 40°56' W 071°41'1 0.5
2015-Jun-26 01:33N 40°56' W 071°41'1 0.9
2015-Jun-26 00:33N 40°55' W 071°41'1 1.3
2015-Jun-25 23:33N 40°57' W 071°40'1 0.7
2015-Jun-25 22:33N 40°56' W 071°41'0 0.4
2015-Jun-25 21:33N 40°56' W 071°41'0 0.2
2015-Jun-25 20:33N 40°56' W 071°41'0 0.1
2015-Jun-25 17:15N 40°56' W 071°41'1 1.7
2015-Jun-25 16:33N 40°57' W 071°40'0 0.3
2015-Jun-25 15:29N 40°57' W 071°39'0 0.3
2015-Jun-25 14:32N 40°57' W 071°39'2 1.7
2015-Jun-25 13:32N 40°56' W 071°41'2 0.7
2015-Jun-25 11:17N 40°57' W 071°39'0 0.2
2015-Jun-25 10:15N 40°57' W 071°39'1 0.1
2015-Jun-25 05:23N 40°57' W 071°40'2 2.5
2015-Jun-25 04:26N 40°57' W 071°37'1 0.7
2015-Jun-25 03:17N 40°58' W 071°37'11 1.9
2015-Jun-24 21:18N 41°06' W 071°26'  

Dump ship's entire track history